sensor_id;sensor_type;location;lat;lon;timestamp;temperature;humidity
75517;DHT22;64097;52.548;13.406;2023-01-10T06:01:29;12.60;65.00
75517;DHT22;64097;52.548;13.406;2023-01-10T06:03:55;12.60;65.00
75517;DHT22;64097;52.548;13.406;2023-01-10T06:06:20;12.60;64.80
75517;DHT22;64097;52.548;13.406;2023-01-10T06:08:46;12.60;64.80
75517;DHT22;64097;52.548;13.406;2023-01-10T06:11:12;12.60;64.90
75517;DHT22;64097;52.548;13.406;2023-01-10T06:13:37;12.60;64.80
75517;DHT22;64097;52.548;13.406;2023-01-10T06:16:03;12.60;64.70
75517;DHT22;64097;52.548;13.406;2023-01-10T06:18:29;12.60;64.70
75517;DHT22;64097;52.548;13.406;2023-01-10T06:20:55;12.60;64.60
75517;DHT22;64097;52.548;13.406;2023-01-10T06:23:21;12.60;64.60
75517;DHT22;64097;52.548;13.406;2023-01-10T06:25:46;12.60;64.60
75517;DHT22;64097;52.548;13.406;2023-01-10T06:28:13;12.60;64.50
75517;DHT22;64097;52.548;13.406;2023-01-10T06:30:42;12.60;64.30
75517;DHT22;64097;52.548;13.406;2023-01-10T06:33:09;12.60;64.30
75517;DHT22;64097;52.548;13.406;2023-01-10T06:35:36;12.60;64.30
75517;DHT22;64097;52.548;13.406;2023-01-10T06:38:02;12.60;64.30
75517;DHT22;64097;52.548;13.406;2023-01-10T06:40:28;12.60;64.30
75517;DHT22;64097;52.548;13.406;2023-01-10T06:42:54;12.60;64.30
75517;DHT22;64097;52.548;13.406;2023-01-10T06:45:20;12.60;64.30
75517;DHT22;64097;52.548;13.406;2023-01-10T06:47:46;12.60;64.40
75517;DHT22;64097;52.548;13.406;2023-01-10T06:50:12;12.60;64.40
75517;DHT22;64097;52.548;13.406;2023-01-10T06:52:41;12.60;64.40
75517;DHT22;64097;52.548;13.406;2023-01-10T06:55:08;12.60;64.50
75517;DHT22;64097;52.548;13.406;2023-01-10T06:57:34;12.60;64.40
75517;DHT22;64097;52.548;13.406;2023-01-10T07:00:07;12.60;64.30
75517;DHT22;64097;52.548;13.406;2023-01-10T07:02:34;12.60;64.30
75517;DHT22;64097;52.548;13.406;2023-01-10T07:05:02;12.70;64.30
75517;DHT22;64097;52.548;13.406;2023-01-10T07:07:28;12.70;64.20
75517;DHT22;64097;52.548;13.406;2023-01-10T07:09:55;12.70;64.20
75517;DHT22;64097;52.548;13.406;2023-01-10T07:12:29;12.70;64.10
75517;DHT22;64097;52.548;13.406;2023-01-10T07:15:00;12.70;63.90
75517;DHT22;64097;52.548;13.406;2023-01-10T07:17:30;12.60;63.80
75517;DHT22;64097;52.548;13.406;2023-01-10T07:20:01;12.60;63.80
75517;DHT22;64097;52.548;13.406;2023-01-10T07:22:28;12.60;63.90
75517;DHT22;64097;52.548;13.406;2023-01-10T07:24:55;12.60;64.00
75517;DHT22;64097;52.548;13.406;2023-01-10T07:27:28;12.60;64.00
75517;DHT22;64097;52.548;13.406;2023-01-10T07:29:55;12.60;64.00
75517;DHT22;64097;52.548;13.406;2023-01-10T07:32:20;12.60;64.00
75517;DHT22;64097;52.548;13.406;2023-01-10T07:34:46;12.60;63.90
75517;DHT22;64097;52.548;13.406;2023-01-10T07:37:12;12.60;64.00
75517;DHT22;64097;52.548;13.406;2023-01-10T07:39:37;12.60;63.90
75517;DHT22;64097;52.548;13.406;2023-01-10T07:42:03;12.60;63.80
75517;DHT22;64097;52.548;13.406;2023-01-10T07:44:29;12.60;64.00
75517;DHT22;64097;52.548;13.406;2023-01-10T07:46:55;12.50;64.10
75517;DHT22;64097;52.548;13.406;2023-01-10T07:49:20;12.50;64.10
75517;DHT22;64097;52.548;13.406;2023-01-10T07:51:46;12.60;64.00
75517;DHT22;64097;52.548;13.406;2023-01-10T07:54:13;12.60;64.10
75517;DHT22;64097;52.548;13.406;2023-01-10T07:56:40;12.60;64.00
75517;DHT22;64097;52.548;13.406;2023-01-10T07:59:09;12.60;64.00
75517;DHT22;64097;52.548;13.406;2023-01-10T08:01:38;12.60;64.00
75517;DHT22;64097;52.548;13.406;2023-01-10T08:04:05;12.60;63.90
75517;DHT22;64097;52.548;13.406;2023-01-10T08:06:34;12.60;63.80
75517;DHT22;64097;52.548;13.406;2023-01-10T08:09:01;12.70;63.80
75517;DHT22;64097;52.548;13.406;2023-01-10T08:11:29;12.70;63.80
75517;DHT22;64097;52.548;13.406;2023-01-10T08:13:56;12.70;63.80
75517;DHT22;64097;52.548;13.406;2023-01-10T08:16:28;12.70;63.80
75517;DHT22;64097;52.548;13.406;2023-01-10T08:18:55;12.70;63.60
75517;DHT22;64097;52.548;13.406;2023-01-10T08:21:22;12.70;63.60
75517;DHT22;64097;52.548;13.406;2023-01-10T08:23:50;12.80;63.50
75517;DHT22;64097;52.548;13.406;2023-01-10T08:26:23;12.80;63.50
75517;DHT22;64097;52.548;13.406;2023-01-10T08:28:52;12.80;63.50
75517;DHT22;64097;52.548;13.406;2023-01-10T08:31:23;12.80;63.60
75517;DHT22;64097;52.548;13.406;2023-01-10T08:33:51;12.80;63.50
75517;DHT22;64097;52.548;13.406;2023-01-10T08:36:20;12.90;63.50
75517;DHT22;64097;52.548;13.406;2023-01-10T08:38:56;12.90;63.50
75517;DHT22;64097;52.548;13.406;2023-01-10T08:41:27;12.90;63.50
75517;DHT22;64097;52.548;13.406;2023-01-10T08:43:55;12.90;63.30
75517;DHT22;64097;52.548;13.406;2023-01-10T08:46:30;12.90;63.20
75517;DHT22;64097;52.548;13.406;2023-01-10T08:48:58;12.90;63.10
75517;DHT22;64097;52.548;13.406;2023-01-10T08:51:28;12.90;63.00
75517;DHT22;64097;52.548;13.406;2023-01-10T08:53:58;12.90;63.20
75517;DHT22;64097;52.548;13.406;2023-01-10T08:56:32;13.00;63.30
75517;DHT22;64097;52.548;13.406;2023-01-10T08:59:05;13.00;63.10
75517;DHT22;64097;52.548;13.406;2023-01-10T09:01:38;13.00;63.10
75517;DHT22;64097;52.548;13.406;2023-01-10T09:04:11;13.10;63.10
75517;DHT22;64097;52.548;13.406;2023-01-10T09:06:40;13.10;62.80
75517;DHT22;64097;52.548;13.406;2023-01-10T09:09:09;13.10;62.80
75517;DHT22;64097;52.548;13.406;2023-01-10T09:11:41;13.10;62.80
75517;DHT22;64097;52.548;13.406;2023-01-10T09:14:14;13.10;62.70
75517;DHT22;64097;52.548;13.406;2023-01-10T09:16:43;13.20;62.70
75517;DHT22;64097;52.548;13.406;2023-01-10T09:19:13;13.10;62.50
75517;DHT22;64097;52.548;13.406;2023-01-10T09:21:42;13.20;62.50
75517;DHT22;64097;52.548;13.406;2023-01-10T09:24:11;13.20;62.60
75517;DHT22;64097;52.548;13.406;2023-01-10T09:26:39;13.20;62.50
75517;DHT22;64097;52.548;13.406;2023-01-10T09:29:07;13.20;62.50
75517;DHT22;64097;52.548;13.406;2023-01-10T09:31:39;13.20;62.50
75517;DHT22;64097;52.548;13.406;2023-01-10T09:34:06;13.20;62.50
75517;DHT22;64097;52.548;13.406;2023-01-10T09:36:35;13.20;62.40
75517;DHT22;64097;52.548;13.406;2023-01-10T09:39:04;13.20;62.50
75517;DHT22;64097;52.548;13.406;2023-01-10T09:52:29;13.20;62.60
75517;DHT22;64097;52.548;13.406;2023-01-10T09:54:59;13.20;62.60
75517;DHT22;64097;52.548;13.406;2023-01-10T09:57:25;13.20;62.60
75517;DHT22;64097;52.548;13.406;2023-01-10T09:59:52;13.20;62.80
75517;DHT22;64097;52.548;13.406;2023-01-10T10:05:19;13.30;62.70
75517;DHT22;64097;52.548;13.406;2023-01-10T10:07:51;13.30;62.80
75517;DHT22;64097;52.548;13.406;2023-01-10T10:10:26;13.40;62.90
75517;DHT22;64097;52.548;13.406;2023-01-10T10:23:45;13.50;62.90
75517;DHT22;64097;52.548;13.406;2023-01-10T10:26:33;13.50;62.80
75517;DHT22;64097;52.548;13.406;2023-01-10T10:31:57;13.60;62.70
75517;DHT22;64097;52.548;13.406;2023-01-10T10:34:30;13.60;62.60
75517;DHT22;64097;52.548;13.406;2023-01-10T10:37:24;13.60;62.50
75517;DHT22;64097;52.548;13.406;2023-01-10T10:39:58;13.60;62.60
75517;DHT22;64097;52.548;13.406;2023-01-10T10:42:31;13.60;62.50
75517;DHT22;64097;52.548;13.406;2023-01-10T10:45:09;13.70;62.50
75517;DHT22;64097;52.548;13.406;2023-01-10T10:47:41;13.70;62.40
75517;DHT22;64097;52.548;13.406;2023-01-10T10:52:40;13.70;61.90
75517;DHT22;64097;52.548;13.406;2023-01-10T10:55:13;13.70;61.60
75517;DHT22;64097;52.548;13.406;2023-01-10T10:57:39;13.80;61.50
75517;DHT22;64097;52.548;13.406;2023-01-10T11:00:09;13.80;61.40
75517;DHT22;64097;52.548;13.406;2023-01-10T11:02:42;13.80;61.20
75517;DHT22;64097;52.548;13.406;2023-01-10T11:05:16;13.80;61.90
75517;DHT22;64097;52.548;13.406;2023-01-10T11:07:43;13.80;60.90
75517;DHT22;64097;52.548;13.406;2023-01-10T11:10:21;13.80;60.90
75517;DHT22;64097;52.548;13.406;2023-01-10T11:15:42;13.90;61.00
75517;DHT22;64097;52.548;13.406;2023-01-10T11:18:20;14.00;60.80
75517;DHT22;64097;52.548;13.406;2023-01-10T11:20:54;14.00;60.60
75517;DHT22;64097;52.548;13.406;2023-01-10T11:23:49;14.00;60.40
75517;DHT22;64097;52.548;13.406;2023-01-10T11:26:29;14.10;60.50
75517;DHT22;64097;52.548;13.406;2023-01-10T11:29:13;14.10;60.10
75517;DHT22;64097;52.548;13.406;2023-01-10T11:31:41;14.10;59.70
75517;DHT22;64097;52.548;13.406;2023-01-10T11:34:25;14.10;59.60
75517;DHT22;64097;52.548;13.406;2023-01-10T11:36:56;14.20;59.70
75517;DHT22;64097;52.548;13.406;2023-01-10T11:39:22;14.20;59.40
75517;DHT22;64097;52.548;13.406;2023-01-10T11:41:47;14.10;59.00
75517;DHT22;64097;52.548;13.406;2023-01-10T11:44:22;14.10;59.00
75517;DHT22;64097;52.548;13.406;2023-01-10T11:46:49;14.10;59.10
75517;DHT22;64097;52.548;13.406;2023-01-10T11:49:31;14.10;59.00
75517;DHT22;64097;52.548;13.406;2023-01-10T11:52:03;14.10;59.00
75517;DHT22;64097;52.548;13.406;2023-01-10T11:54:31;14.10;59.00
75517;DHT22;64097;52.548;13.406;2023-01-10T11:56:57;14.20;59.30
75517;DHT22;64097;52.548;13.406;2023-01-10T11:59:25;14.20;59.10
75517;DHT22;64097;52.548;13.406;2023-01-10T12:02:09;14.20;59.00
75517;DHT22;64097;52.548;13.406;2023-01-10T12:04:41;14.20;58.90
75517;DHT22;64097;52.548;13.406;2023-01-10T12:07:10;14.20;59.00
75517;DHT22;64097;52.548;13.406;2023-01-10T12:10:00;14.20;59.10
75517;DHT22;64097;52.548;13.406;2023-01-10T12:12:31;14.20;58.80
75517;DHT22;64097;52.548;13.406;2023-01-10T12:15:19;14.20;58.80
75517;DHT22;64097;52.548;13.406;2023-01-10T12:17:47;14.20;58.80
75517;DHT22;64097;52.548;13.406;2023-01-10T12:20:13;14.30;58.70
75517;DHT22;64097;52.548;13.406;2023-01-10T12:22:46;14.30;58.70
75517;DHT22;64097;52.548;13.406;2023-01-10T12:25:17;14.30;58.70
75517;DHT22;64097;52.548;13.406;2023-01-10T12:27:44;14.30;58.40
75517;DHT22;64097;52.548;13.406;2023-01-10T12:30:43;14.20;58.40
75517;DHT22;64097;52.548;13.406;2023-01-10T12:33:35;14.20;58.50
75517;DHT22;64097;52.548;13.406;2023-01-10T12:39:01;14.10;58.70
75517;DHT22;64097;52.548;13.406;2023-01-10T12:44:41;14.10;58.10
75517;DHT22;64097;52.548;13.406;2023-01-10T12:50:06;14.00;58.50
75517;DHT22;64097;52.548;13.406;2023-01-10T12:52:43;14.00;58.60
75517;DHT22;64097;52.548;13.406;2023-01-10T12:55:22;14.00;58.70
75517;DHT22;64097;52.548;13.406;2023-01-10T12:58:00;14.10;58.60
75517;DHT22;64097;52.548;13.406;2023-01-10T13:00:36;14.10;58.30
75517;DHT22;64097;52.548;13.406;2023-01-10T13:03:11;14.10;58.30
75517;DHT22;64097;52.548;13.406;2023-01-10T13:05:37;14.10;58.20
75517;DHT22;64097;52.548;13.406;2023-01-10T13:08:10;14.10;58.30
75517;DHT22;64097;52.548;13.406;2023-01-10T13:10:41;14.10;58.10
75517;DHT22;64097;52.548;13.406;2023-01-10T13:13:23;14.20;58.20
75517;DHT22;64097;52.548;13.406;2023-01-10T13:19:00;14.20;58.00
75517;DHT22;64097;52.548;13.406;2023-01-10T13:21:26;14.20;57.90
75517;DHT22;64097;52.548;13.406;2023-01-10T13:24:01;14.20;57.80
75517;DHT22;64097;52.548;13.406;2023-01-10T13:26:51;14.20;57.90
75517;DHT22;64097;52.548;13.406;2023-01-10T13:29:29;14.30;57.90
75517;DHT22;64097;52.548;13.406;2023-01-10T13:31:58;14.30;57.60
75517;DHT22;64097;52.548;13.406;2023-01-10T13:34:31;14.30;57.70
75517;DHT22;64097;52.548;13.406;2023-01-10T13:37:22;14.30;57.70
75517;DHT22;64097;52.548;13.406;2023-01-10T13:39:56;14.20;57.60
75517;DHT22;64097;52.548;13.406;2023-01-10T13:52:49;14.20;57.40
75517;DHT22;64097;52.548;13.406;2023-01-10T13:55:30;14.20;57.50
